sensor_id;sensor_type;location;lat;lon;timestamp;temperature;humidity
21861;DHT22;11095;48.066;8.540;2023-06-14T00:01:28;11.90;97.90
21861;DHT22;11095;48.066;8.540;2023-06-14T00:03:54;11.80;98.60
21861;DHT22;11095;48.066;8.540;2023-06-14T00:06:21;11.70;99.00
21861;DHT22;11095;48.066;8.540;2023-06-14T00:08:46;11.60;99.40
21861;DHT22;11095;48.066;8.540;2023-06-14T00:11:12;11.60;99.70
21861;DHT22;11095;48.066;8.540;2023-06-14T00:13:37;11.60;99.90
21861;DHT22;11095;48.066;8.540;2023-06-14T00:16:03;11.50;99.90
21861;DHT22;11095;48.066;8.540;2023-06-14T00:18:29;11.40;99.90
21861;DHT22;11095;48.066;8.540;2023-06-14T00:20:54;11.30;99.90
21861;DHT22;11095;48.066;8.540;2023-06-14T00:23:20;11.40;99.90
21861;DHT22;11095;48.066;8.540;2023-06-14T00:25:46;11.30;99.90
21861;DHT22;11095;48.066;8.540;2023-06-14T00:28:12;11.30;99.90
21861;DHT22;11095;48.066;8.540;2023-06-14T00:30:37;11.20;99.90
21861;DHT22;11095;48.066;8.540;2023-06-14T00:33:03;11.20;99.90
21861;DHT22;11095;48.066;8.540;2023-06-14T00:35:29;11.10;99.90
21861;DHT22;11095;48.066;8.540;2023-06-14T00:37:55;11.10;99.90
21861;DHT22;11095;48.066;8.540;2023-06-14T00:40:21;11.00;99.90
21861;DHT22;11095;48.066;8.540;2023-06-14T00:42:47;11.00;99.90
21861;DHT22;11095;48.066;8.540;2023-06-14T00:45:12;11.00;99.90
21861;DHT22;11095;48.066;8.540;2023-06-14T00:47:38;10.90;99.90
21861;DHT22;11095;48.066;8.540;2023-06-14T00:50:07;10.90;99.90
21861;DHT22;11095;48.066;8.540;2023-06-14T00:52:33;10.90;99.90
21861;DHT22;11095;48.066;8.540;2023-06-14T00:54:59;10.90;99.90
21861;DHT22;11095;48.066;8.540;2023-06-14T00:57:26;10.90;99.90
21861;DHT22;11095;48.066;8.540;2023-06-14T00:59:52;10.90;99.90
21861;DHT22;11095;48.066;8.540;2023-06-14T01:02:18;10.80;99.90
21861;DHT22;11095;48.066;8.540;2023-06-14T01:04:45;10.80;99.90
21861;DHT22;11095;48.066;8.540;2023-06-14T01:07:43;10.80;99.90
21861;DHT22;11095;48.066;8.540;2023-06-14T01:15:27;10.70;99.90
21861;DHT22;11095;48.066;8.540;2023-06-14T01:17:54;10.60;99.90
21861;DHT22;11095;48.066;8.540;2023-06-14T01:20:31;10.50;99.90
21861;DHT22;11095;48.066;8.540;2023-06-14T01:22:58;10.50;99.90
21861;DHT22;11095;48.066;8.540;2023-06-14T01:25:23;10.40;99.90
21861;DHT22;11095;48.066;8.540;2023-06-14T01:27:57;10.40;99.90
21861;DHT22;11095;48.066;8.540;2023-06-14T01:30:23;10.30;99.90
21861;DHT22;11095;48.066;8.540;2023-06-14T01:32:51;10.40;99.90
21861;DHT22;11095;48.066;8.540;2023-06-14T01:35:17;10.30;99.90
21861;DHT22;11095;48.066;8.540;2023-06-14T01:37:43;10.30;99.90
21861;DHT22;11095;48.066;8.540;2023-06-14T01:40:10;10.30;99.90
21861;DHT22;11095;48.066;8.540;2023-06-14T01:42:38;10.20;99.90
21861;DHT22;11095;48.066;8.540;2023-06-14T01:45:05;10.20;99.90
21861;DHT22;11095;48.066;8.540;2023-06-14T01:47:32;10.10;99.90
21861;DHT22;11095;48.066;8.540;2023-06-14T01:49:58;10.10;99.90
21861;DHT22;11095;48.066;8.540;2023-06-14T01:52:24;10.00;99.90
21861;DHT22;11095;48.066;8.540;2023-06-14T01:54:50;10.00;99.90
21861;DHT22;11095;48.066;8.540;2023-06-14T01:57:16;9.90;99.90
21861;DHT22;11095;48.066;8.540;2023-06-14T01:59:42;9.90;99.90
21861;DHT22;11095;48.066;8.540;2023-06-14T02:02:07;9.80;99.90
21861;DHT22;11095;48.066;8.540;2023-06-14T02:04:33;9.80;99.90
21861;DHT22;11095;48.066;8.540;2023-06-14T02:06:58;9.80;99.90
21861;DHT22;11095;48.066;8.540;2023-06-14T02:09:24;9.80;99.90
21861;DHT22;11095;48.066;8.540;2023-06-14T02:11:50;9.80;99.90
21861;DHT22;11095;48.066;8.540;2023-06-14T02:14:15;9.80;99.90
21861;DHT22;11095;48.066;8.540;2023-06-14T02:16:42;9.80;99.90
21861;DHT22;11095;48.066;8.540;2023-06-14T02:19:16;9.70;99.90
21861;DHT22;11095;48.066;8.540;2023-06-14T02:21:42;9.60;99.90
21861;DHT22;11095;48.066;8.540;2023-06-14T02:24:08;9.70;99.90
21861;DHT22;11095;48.066;8.540;2023-06-14T02:26:34;9.70;99.90
21861;DHT22;11095;48.066;8.540;2023-06-14T02:28:59;9.80;99.90
21861;DHT22;11095;48.066;8.540;2023-06-14T02:31:25;9.80;99.90
21861;DHT22;11095;48.066;8.540;2023-06-14T02:33:51;9.70;99.90
21861;DHT22;11095;48.066;8.540;2023-06-14T02:36:16;9.60;99.90
21861;DHT22;11095;48.066;8.540;2023-06-14T02:38:42;9.60;99.90
21861;DHT22;11095;48.066;8.540;2023-06-14T02:41:07;9.50;99.90
21861;DHT22;11095;48.066;8.540;2023-06-14T02:43:33;9.50;99.90
21861;DHT22;11095;48.066;8.540;2023-06-14T02:45:58;9.40;99.90
21861;DHT22;11095;48.066;8.540;2023-06-14T02:48:24;9.30;99.90
21861;DHT22;11095;48.066;8.540;2023-06-14T02:50:50;9.30;99.90
21861;DHT22;11095;48.066;8.540;2023-06-14T02:59:23;9.10;99.90
21861;DHT22;11095;48.066;8.540;2023-06-14T03:01:53;9.10;99.90
21861;DHT22;11095;48.066;8.540;2023-06-14T03:04:22;9.00;99.90
21861;DHT22;11095;48.066;8.540;2023-06-14T03:06:50;9.00;99.90
21861;DHT22;11095;48.066;8.540;2023-06-14T03:09:16;9.00;99.90
21861;DHT22;11095;48.066;8.540;2023-06-14T03:11:42;9.00;99.90
21861;DHT22;11095;48.066;8.540;2023-06-14T03:14:22;9.10;99.90
21861;DHT22;11095;48.066;8.540;2023-06-14T03:16:55;9.00;99.90
21861;DHT22;11095;48.066;8.540;2023-06-14T03:19:22;9.00;99.90
21861;DHT22;11095;48.066;8.540;2023-06-14T03:21:51;8.90;99.90
21861;DHT22;11095;48.066;8.540;2023-06-14T03:24:17;8.90;99.90
21861;DHT22;11095;48.066;8.540;2023-06-14T03:26:43;8.90;99.90
21861;DHT22;11095;48.066;8.540;2023-06-14T03:29:08;8.90;99.90
21861;DHT22;11095;48.066;8.540;2023-06-14T03:31:34;9.00;99.90
21861;DHT22;11095;48.066;8.540;2023-06-14T03:34:01;9.00;99.90
21861;DHT22;11095;48.066;8.540;2023-06-14T03:36:27;9.00;99.90
21861;DHT22;11095;48.066;8.540;2023-06-14T03:38:56;9.00;99.90
21861;DHT22;11095;48.066;8.540;2023-06-14T03:41:25;9.00;99.90
21861;DHT22;11095;48.066;8.540;2023-06-14T03:43:54;9.10;99.90
21861;DHT22;11095;48.066;8.540;2023-06-14T03:46:19;9.40;99.90
21861;DHT22;11095;48.066;8.540;2023-06-14T03:48:53;9.80;99.90
21861;DHT22;11095;48.066;8.540;2023-06-14T03:51:18;10.20;99.90
21861;DHT22;11095;48.066;8.540;2023-06-14T03:56:40;11.40;99.90
21861;DHT22;11095;48.066;8.540;2023-06-14T03:59:34;12.20;99.90
21861;DHT22;11095;48.066;8.540;2023-06-14T04:02:00;13.00;99.90
21861;DHT22;11095;48.066;8.540;2023-06-14T04:04:26;13.50;99.90
21861;DHT22;11095;48.066;8.540;2023-06-14T04:06:55;14.20;99.90
21861;DHT22;11095;48.066;8.540;2023-06-14T04:09:23;15.10;99.90
21861;DHT22;11095;48.066;8.540;2023-06-14T04:11:50;15.90;99.90
21861;DHT22;11095;48.066;8.540;2023-06-14T04:14:16;16.70;99.90
21861;DHT22;11095;48.066;8.540;2023-06-14T04:16:42;17.50;99.90
21861;DHT22;11095;48.066;8.540;2023-06-14T04:19:08;18.40;99.90
21861;DHT22;11095;48.066;8.540;2023-06-14T04:21:33;19.00;98.10
21861;DHT22;11095;48.066;8.540;2023-06-14T04:24:00;19.60;96.10
21861;DHT22;11095;48.066;8.540;2023-06-14T04:26:26;20.10;94.30
21861;DHT22;11095;48.066;8.540;2023-06-14T04:28:55;20.40;93.30
21861;DHT22;11095;48.066;8.540;2023-06-14T04:31:22;21.00;92.40
21861;DHT22;11095;48.066;8.540;2023-06-14T04:33:50;21.60;90.90
21861;DHT22;11095;48.066;8.540;2023-06-14T04:36:20;22.10;88.00
21861;DHT22;11095;48.066;8.540;2023-06-14T04:38:45;22.20;86.10
21861;DHT22;11095;48.066;8.540;2023-06-14T04:41:12;22.60;84.90
21861;DHT22;11095;48.066;8.540;2023-06-14T04:43:38;23.10;82.80
21861;DHT22;11095;48.066;8.540;2023-06-14T04:46:05;23.60;81.70
21861;DHT22;11095;48.066;8.540;2023-06-14T04:48:40;24.40;79.60
21861;DHT22;11095;48.066;8.540;2023-06-14T04:51:08;25.30;76.50
21861;DHT22;11095;48.066;8.540;2023-06-14T04:53:34;25.80;73.30
21861;DHT22;11095;48.066;8.540;2023-06-14T04:56:00;26.10;71.70
21861;DHT22;11095;48.066;8.540;2023-06-14T04:58:26;26.40;70.40
21861;DHT22;11095;48.066;8.540;2023-06-14T05:00:53;27.00;68.80
21861;DHT22;11095;48.066;8.540;2023-06-14T05:03:19;27.80;66.20
21861;DHT22;11095;48.066;8.540;2023-06-14T05:05:46;28.40;63.80
21861;DHT22;11095;48.066;8.540;2023-06-14T05:08:12;28.50;61.60
21861;DHT22;11095;48.066;8.540;2023-06-14T05:10:37;28.90;60.90
21861;DHT22;11095;48.066;8.540;2023-06-14T05:13:03;29.50;59.10
21861;DHT22;11095;48.066;8.540;2023-06-14T05:15:29;29.60;57.90
21861;DHT22;11095;48.066;8.540;2023-06-14T05:17:55;29.80;57.60
21861;DHT22;11095;48.066;8.540;2023-06-14T05:20:24;30.30;56.40
21861;DHT22;11095;48.066;8.540;2023-06-14T05:22:53;30.90;55.50
21861;DHT22;11095;48.066;8.540;2023-06-14T05:25:19;31.20;54.90
21861;DHT22;11095;48.066;8.540;2023-06-14T05:27:46;31.60;53.90
21861;DHT22;11095;48.066;8.540;2023-06-14T05:30:12;31.90;53.20
21861;DHT22;11095;48.066;8.540;2023-06-14T05:32:38;32.30;52.90
21861;DHT22;11095;48.066;8.540;2023-06-14T05:35:04;32.60;51.70
21861;DHT22;11095;48.066;8.540;2023-06-14T05:37:31;33.00;51.10
21861;DHT22;11095;48.066;8.540;2023-06-14T05:39:56;33.60;50.50
21861;DHT22;11095;48.066;8.540;2023-06-14T05:42:22;33.60;50.50
21861;DHT22;11095;48.066;8.540;2023-06-14T05:44:48;33.40;50.50
21861;DHT22;11095;48.066;8.540;2023-06-14T05:47:13;33.30;50.00
21861;DHT22;11095;48.066;8.540;2023-06-14T05:49:39;33.10;49.80
21861;DHT22;11095;48.066;8.540;2023-06-14T05:52:05;33.00;49.90
21861;DHT22;11095;48.066;8.540;2023-06-14T05:54:31;33.30;49.60
21861;DHT22;11095;48.066;8.540;2023-06-14T05:56:56;33.40;49.00
21861;DHT22;11095;48.066;8.540;2023-06-14T05:59:27;33.30;49.60
21861;DHT22;11095;48.066;8.540;2023-06-14T06:01:52;33.50;48.90
21861;DHT22;11095;48.066;8.540;2023-06-14T06:04:18;33.70;48.30
21861;DHT22;11095;48.066;8.540;2023-06-14T06:06:44;34.10;48.20
21861;DHT22;11095;48.066;8.540;2023-06-14T06:09:10;33.70;48.10
21861;DHT22;11095;48.066;8.540;2023-06-14T06:11:36;33.20;47.40
21861;DHT22;11095;48.066;8.540;2023-06-14T06:14:01;32.60;47.40
21861;DHT22;11095;48.066;8.540;2023-06-14T06:16:27;32.30;48.80
21861;DHT22;11095;48.066;8.540;2023-06-14T06:18:53;33.00;48.90
21861;DHT22;11095;48.066;8.540;2023-06-14T06:21:18;33.90;48.20
21861;DHT22;11095;48.066;8.540;2023-06-14T06:23:44;33.00;47.40
21861;DHT22;11095;48.066;8.540;2023-06-14T06:26:09;32.80;48.40
21861;DHT22;11095;48.066;8.540;2023-06-14T06:28:35;32.80;48.80
21861;DHT22;11095;48.066;8.540;2023-06-14T06:31:01;33.10;47.80
21861;DHT22;11095;48.066;8.540;2023-06-14T06:33:26;33.20;48.10
21861;DHT22;11095;48.066;8.540;2023-06-14T06:35:52;33.80;47.50
21861;DHT22;11095;48.066;8.540;2023-06-14T06:38:17;34.10;47.10
21861;DHT22;11095;48.066;8.540;2023-06-14T06:40:44;34.10;45.40
21861;DHT22;11095;48.066;8.540;2023-06-14T06:43:09;33.10;47.60
21861;DHT22;11095;48.066;8.540;2023-06-14T06:45:39;32.20;48.10
21861;DHT22;11095;48.066;8.540;2023-06-14T06:48:05;30.10;49.60
21861;DHT22;11095;48.066;8.540;2023-06-14T06:50:31;30.20;50.50
21861;DHT22;11095;48.066;8.540;2023-06-14T06:52:57;30.30;50.70
21861;DHT22;11095;48.066;8.540;2023-06-14T06:55:22;30.50;50.00
21861;DHT22;11095;48.066;8.540;2023-06-14T06:57:48;30.00;49.90
21861;DHT22;11095;48.066;8.540;2023-06-14T07:00:15;28.40;51.20
21861;DHT22;11095;48.066;8.540;2023-06-14T07:02:41;29.00;51.90
21861;DHT22;11095;48.066;8.540;2023-06-14T07:05:07;26.20;54.20
21861;DHT22;11095;48.066;8.540;2023-06-14T07:07:33;27.30;54.90
21861;DHT22;11095;48.066;8.540;2023-06-14T07:09:59;29.20;53.50
21861;DHT22;11095;48.066;8.540;2023-06-14T07:12:25;29.60;52.80
21861;DHT22;11095;48.066;8.540;2023-06-14T07:14:51;28.10;52.60
21861;DHT22;11095;48.066;8.540;2023-06-14T07:17:17;28.60;52.60
21861;DHT22;11095;48.066;8.540;2023-06-14T07:19:42;28.60;51.30
21861;DHT22;11095;48.066;8.540;2023-06-14T07:22:08;27.60;53.00
21861;DHT22;11095;48.066;8.540;2023-06-14T07:24:33;25.40;56.30
21861;DHT22;11095;48.066;8.540;2023-06-14T07:27:01;26.40;56.00
21861;DHT22;11095;48.066;8.540;2023-06-14T07:29:28;26.00;54.10
21861;DHT22;11095;48.066;8.540;2023-06-14T07:31:54;24.90;56.30
21861;DHT22;11095;48.066;8.540;2023-06-14T07:34:19;24.60;56.40
21861;DHT22;11095;48.066;8.540;2023-06-14T07:36:45;24.60;55.50
21861;DHT22;11095;48.066;8.540;2023-06-14T07:39:11;23.20;57.00
21861;DHT22;11095;48.066;8.540;2023-06-14T07:41:37;23.70;57.80
21861;DHT22;11095;48.066;8.540;2023-06-14T07:44:18;24.60;58.10
21861;DHT22;11095;48.066;8.540;2023-06-14T07:46:44;26.30;55.50
21861;DHT22;11095;48.066;8.540;2023-06-14T07:49:11;25.30;56.00
21861;DHT22;11095;48.066;8.540;2023-06-14T07:51:37;24.60;56.50
21861;DHT22;11095;48.066;8.540;2023-06-14T07:54:03;24.20;57.90
21861;DHT22;11095;48.066;8.540;2023-06-14T07:56:28;23.50;57.70
21861;DHT22;11095;48.066;8.540;2023-06-14T07:58:57;23.10;58.70
21861;DHT22;11095;48.066;8.540;2023-06-14T08:01:26;23.60;57.80
21861;DHT22;11095;48.066;8.540;2023-06-14T08:03:53;23.00;59.10
21861;DHT22;11095;48.066;8.540;2023-06-14T08:06:19;23.10;57.90
21861;DHT22;11095;48.066;8.540;2023-06-14T08:08:48;22.10;58.40
21861;DHT22;11095;48.066;8.540;2023-06-14T08:11:14;21.70;60.10
21861;DHT22;11095;48.066;8.540;2023-06-14T08:13:39;21.90;60.70
21861;DHT22;11095;48.066;8.540;2023-06-14T08:16:05;21.20;60.00
21861;DHT22;11095;48.066;8.540;2023-06-14T08:18:33;21.50;60.70
21861;DHT22;11095;48.066;8.540;2023-06-14T08:21:08;21.10;60.80
21861;DHT22;11095;48.066;8.540;2023-06-14T08:23:33;21.10;61.90
21861;DHT22;11095;48.066;8.540;2023-06-14T08:25:59;22.20;60.40
21861;DHT22;11095;48.066;8.540;2023-06-14T08:28:26;22.40;59.90
21861;DHT22;11095;48.066;8.540;2023-06-14T08:30:52;22.70;59.60
21861;DHT22;11095;48.066;8.540;2023-06-14T08:33:23;22.60;59.40
21861;DHT22;11095;48.066;8.540;2023-06-14T08:35:48;22.60;59.90
21861;DHT22;11095;48.066;8.540;2023-06-14T08:38:20;22.80;61.20
21861;DHT22;11095;48.066;8.540;2023-06-14T08:40:50;22.90;59.70
21861;DHT22;11095;48.066;8.540;2023-06-14T08:43:16;22.40;60.80
21861;DHT22;11095;48.066;8.540;2023-06-14T08:45:42;22.50;59.60
21861;DHT22;11095;48.066;8.540;2023-06-14T08:48:18;22.00;60.30
21861;DHT22;11095;48.066;8.540;2023-06-14T08:50:47;22.00;60.50
21861;DHT22;11095;48.066;8.540;2023-06-14T08:53:14;22.60;59.80
21861;DHT22;11095;48.066;8.540;2023-06-14T08:55:45;22.10;59.30
21861;DHT22;11095;48.066;8.540;2023-06-14T08:58:10;22.00;60.20
21861;DHT22;11095;48.066;8.540;2023-06-14T09:00:39;22.60;59.60
21861;DHT22;11095;48.066;8.540;2023-06-14T09:03:06;22.20;59.70
21861;DHT22;11095;48.066;8.540;2023-06-14T09:05:39;21.70;61.60
21861;DHT22;11095;48.066;8.540;2023-06-14T09:08:05;22.70;59.00
21861;DHT22;11095;48.066;8.540;2023-06-14T09:10:31;23.00;58.40
21861;DHT22;11095;48.066;8.540;2023-06-14T09:13:03;21.90;59.30
21861;DHT22;11095;48.066;8.540;2023-06-14T09:15:30;23.10;58.20
21861;DHT22;11095;48.066;8.540;2023-06-14T09:17:55;22.40;58.00
21861;DHT22;11095;48.066;8.540;2023-06-14T09:20:24;22.60;59.20
21861;DHT22;11095;48.066;8.540;2023-06-14T09:22:50;23.50;57.80
21861;DHT22;11095;48.066;8.540;2023-06-14T09:25:16;23.40;57.20
21861;DHT22;11095;48.066;8.540;2023-06-14T09:27:43;22.90;57.50
21861;DHT22;11095;48.066;8.540;2023-06-14T09:30:11;22.40;56.90
21861;DHT22;11095;48.066;8.540;2023-06-14T09:32:37;22.20;58.80
21861;DHT22;11095;48.066;8.540;2023-06-14T09:35:06;22.70;58.00
21861;DHT22;11095;48.066;8.540;2023-06-14T09:37:33;22.00;58.70
21861;DHT22;11095;48.066;8.540;2023-06-14T09:39:59;22.30;57.90
21861;DHT22;11095;48.066;8.540;2023-06-14T09:42:25;22.30;58.90
21861;DHT22;11095;48.066;8.540;2023-06-14T09:44:52;22.50;57.80
21861;DHT22;11095;48.066;8.540;2023-06-14T09:47:19;21.80;58.80
21861;DHT22;11095;48.066;8.540;2023-06-14T09:49:45;21.40;59.70
21861;DHT22;11095;48.066;8.540;2023-06-14T09:52:15;21.40;59.30
21861;DHT22;11095;48.066;8.540;2023-06-14T09:54:43;22.30;59.20
21861;DHT22;11095;48.066;8.540;2023-06-14T09:57:13;22.00;58.00
21861;DHT22;11095;48.066;8.540;2023-06-14T09:59:42;22.20;59.20
21861;DHT22;11095;48.066;8.540;2023-06-14T10:02:14;22.60;58.20
21861;DHT22;11095;48.066;8.540;2023-06-14T10:04:46;23.60;57.60
21861;DHT22;11095;48.066;8.540;2023-06-14T10:07:19;23.20;56.90
21861;DHT22;11095;48.066;8.540;2023-06-14T10:09:47;23.10;57.40
21861;DHT22;11095;48.066;8.540;2023-06-14T10:12:18;23.50;57.60
21861;DHT22;11095;48.066;8.540;2023-06-14T10:14:49;22.50;57.80
21861;DHT22;11095;48.066;8.540;2023-06-14T10:17:22;22.00;58.70
21861;DHT22;11095;48.066;8.540;2023-06-14T10:20:06;21.80;58.70
21861;DHT22;11095;48.066;8.540;2023-06-14T10:22:41;21.40;59.50
21861;DHT22;11095;48.066;8.540;2023-06-14T10:25:13;21.80;59.50
21861;DHT22;11095;48.066;8.540;2023-06-14T10:27:38;21.40;60.30
21861;DHT22;11095;48.066;8.540;2023-06-14T10:30:07;21.20;61.30
21861;DHT22;11095;48.066;8.540;2023-06-14T10:32:33;21.60;62.50
21861;DHT22;11095;48.066;8.540;2023-06-14T10:35:08;22.10;60.10
21861;DHT22;11095;48.066;8.540;2023-06-14T10:37:34;22.80;60.30
21861;DHT22;11095;48.066;8.540;2023-06-14T10:40:00;22.20;59.80
21861;DHT22;11095;48.066;8.540;2023-06-14T10:42:32;22.10;60.50
21861;DHT22;11095;48.066;8.540;2023-06-14T10:44:58;21.90;60.70
21861;DHT22;11095;48.066;8.540;2023-06-14T10:47:36;21.70;61.10
21861;DHT22;11095;48.066;8.540;2023-06-14T10:50:06;22.00;61.20
21861;DHT22;11095;48.066;8.540;2023-06-14T10:52:34;22.20;60.10
21861;DHT22;11095;48.066;8.540;2023-06-14T11:00:08;22.10;59.90
21861;DHT22;11095;48.066;8.540;2023-06-14T11:05:29;21.30;61.70
21861;DHT22;11095;48.066;8.540;2023-06-14T11:08:09;21.60;61.90
21861;DHT22;11095;48.066;8.540;2023-06-14T11:10:42;21.80;61.70
21861;DHT22;11095;48.066;8.540;2023-06-14T11:13:08;21.50;62.20
21861;DHT22;11095;48.066;8.540;2023-06-14T11:15:35;21.30;62.30
21861;DHT22;11095;48.066;8.540;2023-06-14T11:18:05;21.40;63.70
21861;DHT22;11095;48.066;8.540;2023-06-14T11:20:33;21.50;64.60
21861;DHT22;11095;48.066;8.540;2023-06-14T11:22:59;21.30;63.70
21861;DHT22;11095;48.066;8.540;2023-06-14T11:25:26;21.20;63.70
21861;DHT22;11095;48.066;8.540;2023-06-14T11:27:55;21.30;64.30
21861;DHT22;11095;48.066;8.540;2023-06-14T11:30:21;21.40;64.50
21861;DHT22;11095;48.066;8.540;2023-06-14T11:32:51;21.50;64.00
21861;DHT22;11095;48.066;8.540;2023-06-14T11:35:18;21.50;63.40
21861;DHT22;11095;48.066;8.540;2023-06-14T11:37:44;21.70;64.20
21861;DHT22;11095;48.066;8.540;2023-06-14T11:40:10;21.50;62.50
21861;DHT22;11095;48.066;8.540;2023-06-14T11:42:39;21.50;63.50
21861;DHT22;11095;48.066;8.540;2023-06-14T11:45:08;22.10;62.90
21861;DHT22;11095;48.066;8.540;2023-06-14T11:47:37;22.30;63.20
21861;DHT22;11095;48.066;8.540;2023-06-14T11:50:04;22.40;61.90
21861;DHT22;11095;48.066;8.540;2023-06-14T11:52:31;22.30;62.20
21861;DHT22;11095;48.066;8.540;2023-06-14T11:54:57;22.30;63.00
21861;DHT22;11095;48.066;8.540;2023-06-14T11:57:24;21.80;62.40
21861;DHT22;11095;48.066;8.540;2023-06-14T11:59:49;21.50;63.70
21861;DHT22;11095;48.066;8.540;2023-06-14T12:02:16;21.90;63.20
21861;DHT22;11095;48.066;8.540;2023-06-14T12:04:48;21.90;62.60
21861;DHT22;11095;48.066;8.540;2023-06-14T12:07:15;22.00;63.10
21861;DHT22;11095;48.066;8.540;2023-06-14T12:12:35;21.80;63.30
21861;DHT22;11095;48.066;8.540;2023-06-14T12:15:04;22.20;63.50
21861;DHT22;11095;48.066;8.540;2023-06-14T12:17:34;22.70;62.70
21861;DHT22;11095;48.066;8.540;2023-06-14T12:20:06;22.70;61.50
21861;DHT22;11095;48.066;8.540;2023-06-14T12:22:55;22.40;62.30
21861;DHT22;11095;48.066;8.540;2023-06-14T12:27:56;21.90;63.10
21861;DHT22;11095;48.066;8.540;2023-06-14T12:30:21;22.10;63.40
21861;DHT22;11095;48.066;8.540;2023-06-14T12:32:47;22.30;63.20
21861;DHT22;11095;48.066;8.540;2023-06-14T12:35:13;22.90;63.40
21861;DHT22;11095;48.066;8.540;2023-06-14T12:37:39;22.80;61.10
21861;DHT22;11095;48.066;8.540;2023-06-14T12:40:05;22.10;62.40
21861;DHT22;11095;48.066;8.540;2023-06-14T12:42:32;22.10;62.60
21861;DHT22;11095;48.066;8.540;2023-06-14T12:44:59;21.80;62.70
21861;DHT22;11095;48.066;8.540;2023-06-14T12:47:24;21.90;63.60
21861;DHT22;11095;48.066;8.540;2023-06-14T12:49:50;22.10;62.00
21861;DHT22;11095;48.066;8.540;2023-06-14T12:52:16;22.00;62.70
21861;DHT22;11095;48.066;8.540;2023-06-14T12:54:41;21.80;62.40
21861;DHT22;11095;48.066;8.540;2023-06-14T12:57:07;21.50;63.10
21861;DHT22;11095;48.066;8.540;2023-06-14T12:59:33;21.70;63.40
21861;DHT22;11095;48.066;8.540;2023-06-14T13:02:19;21.70;62.50
21861;DHT22;11095;48.066;8.540;2023-06-14T13:04:47;22.00;61.90
21861;DHT22;11095;48.066;8.540;2023-06-14T13:07:13;22.10;61.60
21861;DHT22;11095;48.066;8.540;2023-06-14T13:09:40;22.30;61.90
21861;DHT22;11095;48.066;8.540;2023-06-14T13:12:07;22.60;60.60
21861;DHT22;11095;48.066;8.540;2023-06-14T13:14:32;22.40;61.50
21861;DHT22;11095;48.066;8.540;2023-06-14T13:16:58;22.10;62.20
21861;DHT22;11095;48.066;8.540;2023-06-14T13:19:23;22.10;62.40
21861;DHT22;11095;48.066;8.540;2023-06-14T13:21:49;21.90;62.90
21861;DHT22;11095;48.066;8.540;2023-06-14T13:24:15;22.10;63.30
21861;DHT22;11095;48.066;8.540;2023-06-14T13:26:40;22.10;62.60
21861;DHT22;11095;48.066;8.540;2023-06-14T13:29:06;22.30;63.10
21861;DHT22;11095;48.066;8.540;2023-06-14T13:31:31;22.40;62.60
21861;DHT22;11095;48.066;8.540;2023-06-14T13:33:57;22.30;62.20
21861;DHT22;11095;48.066;8.540;2023-06-14T13:36:23;22.10;61.70
21861;DHT22;11095;48.066;8.540;2023-06-14T13:38:48;22.20;61.40
21861;DHT22;11095;48.066;8.540;2023-06-14T13:41:14;22.30;61.20
21861;DHT22;11095;48.066;8.540;2023-06-14T13:43:40;22.30;62.20
21861;DHT22;11095;48.066;8.540;2023-06-14T13:46:06;22.80;62.80
21861;DHT22;11095;48.066;8.540;2023-06-14T13:48:31;22.90;61.70
21861;DHT22;11095;48.066;8.540;2023-06-14T13:50:59;23.00;60.90
21861;DHT22;11095;48.066;8.540;2023-06-14T13:53:25;22.70;61.10
21861;DHT22;11095;48.066;8.540;2023-06-14T13:55:50;22.90;61.60
21861;DHT22;11095;48.066;8.540;2023-06-14T13:58:18;22.50;60.80
21861;DHT22;11095;48.066;8.540;2023-06-14T14:00:44;22.70;61.10
21861;DHT22;11095;48.066;8.540;2023-06-14T14:03:09;22.70;61.40
21861;DHT22;11095;48.066;8.540;2023-06-14T14:05:35;22.50;61.40
21861;DHT22;11095;48.066;8.540;2023-06-14T14:08:00;22.50;61.30
21861;DHT22;11095;48.066;8.540;2023-06-14T14:10:28;22.20;61.70
21861;DHT22;11095;48.066;8.540;2023-06-14T14:12:53;22.60;62.90
21861;DHT22;11095;48.066;8.540;2023-06-14T14:15:20;22.60;62.90
21861;DHT22;11095;48.066;8.540;2023-06-14T14:17:45;22.50;62.30
21861;DHT22;11095;48.066;8.540;2023-06-14T14:20:12;22.30;62.90
21861;DHT22;11095;48.066;8.540;2023-06-14T14:22:43;22.30;63.20
21861;DHT22;11095;48.066;8.540;2023-06-14T14:25:10;22.30;63.40
21861;DHT22;11095;48.066;8.540;2023-06-14T14:27:36;22.10;63.60
21861;DHT22;11095;48.066;8.540;2023-06-14T14:30:06;22.20;63.90
21861;DHT22;11095;48.066;8.540;2023-06-14T14:32:31;22.10;63.70
21861;DHT22;11095;48.066;8.540;2023-06-14T14:34:58;22.10;63.30
21861;DHT22;11095;48.066;8.540;2023-06-14T14:37:23;22.30;63.80
21861;DHT22;11095;48.066;8.540;2023-06-14T14:39:50;22.40;62.80
21861;DHT22;11095;48.066;8.540;2023-06-14T14:42:15;22.80;62.50
21861;DHT22;11095;48.066;8.540;2023-06-14T14:44:41;23.00;61.40
21861;DHT22;11095;48.066;8.540;2023-06-14T14:47:06;23.20;61.70
21861;DHT22;11095;48.066;8.540;2023-06-14T14:49:32;23.00;60.80
21861;DHT22;11095;48.066;8.540;2023-06-14T14:51:58;23.10;61.70
21861;DHT22;11095;48.066;8.540;2023-06-14T14:54:24;22.30;61.30
21861;DHT22;11095;48.066;8.540;2023-06-14T14:56:51;22.40;62.20
21861;DHT22;11095;48.066;8.540;2023-06-14T14:59:16;22.00;61.90
21861;DHT22;11095;48.066;8.540;2023-06-14T15:01:42;22.10;62.70
21861;DHT22;11095;48.066;8.540;2023-06-14T15:04:08;22.20;62.80
21861;DHT22;11095;48.066;8.540;2023-06-14T15:06:33;22.20;63.20
21861;DHT22;11095;48.066;8.540;2023-06-14T15:09:01;22.40;62.70
21861;DHT22;11095;48.066;8.540;2023-06-14T15:11:27;22.20;62.50
21861;DHT22;11095;48.066;8.540;2023-06-14T15:13:53;21.90;63.40
21861;DHT22;11095;48.066;8.540;2023-06-14T15:16:19;21.90;64.10
21861;DHT22;11095;48.066;8.540;2023-06-14T15:18:44;22.10;63.20
21861;DHT22;11095;48.066;8.540;2023-06-14T15:21:10;22.30;63.90
21861;DHT22;11095;48.066;8.540;2023-06-14T15:23:36;22.60;63.30
21861;DHT22;11095;48.066;8.540;2023-06-14T15:26:01;22.80;62.00
21861;DHT22;11095;48.066;8.540;2023-06-14T15:28:27;22.90;62.10
21861;DHT22;11095;48.066;8.540;2023-06-14T15:30:57;22.80;62.10
21861;DHT22;11095;48.066;8.540;2023-06-14T15:33:23;22.50;62.20
21861;DHT22;11095;48.066;8.540;2023-06-14T15:35:48;22.70;62.10
21861;DHT22;11095;48.066;8.540;2023-06-14T15:38:14;22.90;62.30
21861;DHT22;11095;48.066;8.540;2023-06-14T15:40:40;22.50;61.60
21861;DHT22;11095;48.066;8.540;2023-06-14T15:43:05;22.30;62.20
21861;DHT22;11095;48.066;8.540;2023-06-14T15:45:31;22.10;62.80
21861;DHT22;11095;48.066;8.540;2023-06-14T15:47:57;22.20;63.30
21861;DHT22;11095;48.066;8.540;2023-06-14T15:50:23;22.10;62.40
21861;DHT22;11095;48.066;8.540;2023-06-14T15:52:48;22.00;63.20
21861;DHT22;11095;48.066;8.540;2023-06-14T15:55:14;22.10;62.60
21861;DHT22;11095;48.066;8.540;2023-06-14T15:57:39;22.00;63.20
21861;DHT22;11095;48.066;8.540;2023-06-14T16:00:05;22.10;63.00